createdAt,value
2022-08-16T00:02:04.080Z,4.00
2022-08-16T00:05:16.452Z,4.40
2022-08-16T00:08:35.899Z,4.70
2022-08-16T00:11:40.739Z,5.07
2022-08-16T00:14:42.605Z,4.47
2022-08-16T00:17:56.812Z,4.43
2022-08-16T00:20:59.522Z,4.80
2022-08-16T00:24:04.566Z,4.10
2022-08-16T00:27:06.852Z,4.03
2022-08-16T00:30:25.047Z,4.07
2022-08-16T00:33:31.038Z,4.07
2022-08-16T00:36:33.174Z,5.25
2022-08-16T00:39:34.986Z,4.35
2022-08-16T00:42:36.740Z,4.05
2022-08-16T00:45:58.274Z,4.30
2022-08-16T00:49:06.381Z,4.30
2022-08-16T00:52:29.261Z,3.85
2022-08-16T00:55:38.079Z,4.43
2022-08-16T00:58:43.870Z,4.97
2022-08-16T01:01:46.590Z,5.05
2022-08-16T01:05:09.691Z,5.15
2022-08-16T01:08:36.442Z,5.57
2022-08-16T01:11:37.005Z,5.13
2022-08-16T01:14:59.836Z,5.47
2022-08-16T01:18:04.314Z,5.15
2022-08-16T01:21:08.880Z,5.35
2022-08-16T01:24:52.018Z,5.00
2022-08-16T01:27:42.267Z,5.07
2022-08-16T01:30:50.610Z,4.93
2022-08-16T01:33:53.199Z,4.07
2022-08-16T01:37:09.088Z,5.10
2022-08-16T01:40:13.819Z,4.65
2022-08-16T01:43:17.794Z,4.60
2022-08-16T01:46:38.385Z,4.40
2022-08-16T01:50:42.483Z,4.22
2022-08-16T01:53:12.551Z,4.60
2022-08-16T01:56:36.075Z,4.50
2022-08-16T01:59:38.825Z,4.20
2022-08-16T02:02:42.942Z,3.58
2022-08-16T02:05:51.715Z,4.28
2022-08-16T02:08:55.056Z,4.18
2022-08-16T02:11:59.205Z,4.53
2022-08-16T02:15:25.299Z,4.25
2022-08-16T02:18:29.401Z,4.28
2022-08-16T02:21:34.051Z,4.45
2022-08-16T02:24:41.269Z,3.95
2022-08-16T02:27:48.030Z,4.43
2022-08-16T02:30:56.404Z,4.10
2022-08-16T02:33:58.293Z,4.30
2022-08-16T02:37:10.205Z,4.00
2022-08-16T02:40:16.725Z,4.65
2022-08-16T02:43:18.769Z,4.50
2022-08-16T02:46:20.718Z,4.55
2022-08-16T02:49:58.518Z,4.63
2022-08-16T02:52:54.998Z,3.92
2022-08-16T02:55:57.968Z,3.80
2022-08-16T02:59:01.708Z,3.60
2022-08-16T03:02:08.841Z,4.20
2022-08-16T03:05:13.897Z,3.60
2022-08-16T03:08:51.741Z,3.85
2022-08-16T03:11:40.004Z,3.78
2022-08-16T03:14:41.894Z,3.92
2022-08-16T03:17:53.201Z,3.80
2022-08-16T03:20:56.459Z,4.50
2022-08-16T03:23:58.836Z,3.45
2022-08-16T03:27:02.908Z,3.47
2022-08-16T03:30:17.490Z,3.28
2022-08-16T03:33:30.205Z,3.65
2022-08-16T03:36:33.563Z,3.38
2022-08-16T03:39:43.021Z,3.38
2022-08-16T03:43:00.549Z,3.67
2022-08-16T03:46:07.888Z,3.38
2022-08-16T03:49:13.422Z,3.70
2022-08-16T03:52:17.083Z,3.40
2022-08-16T03:55:22.141Z,3.30
2022-08-16T03:58:31.297Z,3.67
2022-08-16T04:01:35.004Z,3.75
2022-08-16T04:04:36.877Z,3.60
2022-08-16T04:07:39.440Z,4.13
2022-08-16T04:10:41.351Z,4.63
2022-08-16T04:14:00.468Z,3.80
2022-08-16T04:17:15.339Z,3.75
2022-08-16T04:20:31.471Z,4.00
2022-08-16T04:23:38.845Z,3.92
2022-08-16T04:26:46.107Z,3.20
2022-08-16T04:29:48.854Z,3.67
2022-08-16T04:32:55.629Z,3.80
2022-08-16T04:35:59.010Z,4.03
2022-08-16T04:39:03.013Z,4.38
2022-08-16T04:42:11.194Z,4.05
2022-08-16T04:45:15.369Z,3.45
2022-08-16T04:48:22.121Z,3.92
2022-08-16T04:51:35.968Z,3.67
2022-08-16T04:54:40.293Z,3.97
2022-08-16T04:57:53.714Z,3.65
2022-08-16T05:00:57.186Z,3.70
2022-08-16T05:04:01.850Z,3.90
2022-08-16T05:07:20.530Z,4.45
2022-08-16T05:10:43.182Z,3.88
2022-08-16T05:13:47.389Z,3.58
2022-08-16T05:16:56.091Z,3.65
2022-08-16T05:19:58.657Z,3.63
2022-08-16T05:23:13.760Z,3.85
2022-08-16T05:26:19.809Z,4.72
2022-08-16T05:29:24.963Z,4.25
2022-08-16T05:32:49.728Z,3.95
2022-08-16T05:35:55.634Z,4.07
2022-08-16T05:39:30.320Z,3.78
2022-08-16T05:42:36.107Z,3.70
2022-08-16T05:45:39.451Z,3.72
2022-08-16T05:48:44.771Z,3.55
2022-08-16T05:51:59.826Z,3.97
2022-08-16T05:55:05.220Z,3.90
2022-08-16T05:58:09.823Z,3.75
2022-08-16T06:01:32.915Z,3.97
2022-08-16T06:04:44.867Z,3.92
2022-08-16T06:07:59.254Z,4.68
2022-08-16T06:11:11.124Z,3.25
2022-08-16T06:14:15.361Z,4.03
2022-08-16T06:17:21.613Z,3.42
2022-08-16T06:20:35.116Z,4.25
2022-08-16T06:23:41.512Z,4.35
2022-08-16T06:26:57.309Z,3.83
2022-08-16T06:30:01.985Z,4.22
2022-08-16T06:33:06.083Z,4.07
2022-08-16T06:36:16.783Z,3.60
2022-08-16T06:39:34.432Z,4.47
2022-08-16T06:42:57.748Z,4.03
2022-08-16T06:46:34.715Z,4.35
2022-08-16T06:49:52.696Z,4.60
2022-08-16T06:53:01.108Z,4.60
2022-08-16T06:56:14.661Z,4.75
2022-08-16T06:59:52.180Z,4.30
2022-08-16T07:03:01.585Z,5.47
2022-08-16T07:06:26.743Z,4.68
2022-08-16T07:09:31.600Z,4.53
2022-08-16T07:12:36.718Z,4.35
2022-08-16T07:15:51.217Z,4.03
2022-08-16T07:19:02.013Z,4.15
2022-08-16T07:22:38.386Z,4.70
2022-08-16T07:25:30.587Z,5.10
2022-08-16T07:28:35.315Z,4.47
2022-08-16T07:31:38.185Z,4.25
2022-08-16T07:34:48.616Z,4.90
2022-08-16T07:37:53.270Z,4.93
2022-08-16T07:41:10.208Z,4.68
2022-08-16T07:44:16.517Z,4.25
2022-08-16T07:47:20.307Z,5.43
2022-08-16T07:50:56.151Z,4.32
2022-08-16T07:54:02.703Z,6.22
2022-08-16T07:57:12.856Z,4.93
2022-08-16T08:00:18.463Z,5.50
2022-08-16T08:03:24.061Z,5.85
2022-08-16T08:06:40.305Z,4.30
2022-08-16T08:09:47.204Z,5.13
2022-08-16T08:12:55.100Z,5.15
2022-08-16T08:16:00.599Z,5.28
2022-08-16T08:19:04.044Z,5.22
2022-08-16T08:22:09.635Z,4.65
2022-08-16T08:25:27.178Z,4.88
2022-08-16T08:28:49.499Z,5.32
2022-08-16T08:31:53.263Z,5.35
2022-08-16T08:35:03.400Z,5.25
2022-08-16T08:38:08.329Z,5.68
2022-08-16T08:41:15.180Z,5.22
2022-08-16T08:44:29.248Z,4.60
2022-08-16T08:47:35.392Z,4.57
2022-08-16T08:50:41.445Z,5.30
2022-08-16T08:53:57.822Z,5.47
2022-08-16T08:57:03.459Z,4.57
2022-08-16T09:00:51.190Z,4.22
2022-08-16T09:03:55.368Z,4.45
2022-08-16T09:06:58.347Z,4.90
2022-08-16T09:10:06.620Z,4.35
2022-08-16T09:13:24.496Z,4.03
2022-08-16T09:17:02.308Z,4.72
2022-08-16T09:19:50.292Z,3.67
2022-08-16T09:22:57.189Z,3.70
2022-08-16T09:26:42.970Z,4.32
2022-08-16T09:29:44.969Z,4.57
2022-08-16T09:32:51.143Z,3.50
2022-08-16T09:35:54.500Z,4.28
2022-08-16T09:38:59.586Z,4.68
2022-08-16T09:42:02.923Z,3.58
2022-08-16T09:45:12.576Z,3.67
2022-08-16T09:48:36.882Z,3.88
2022-08-16T09:51:42.680Z,3.88
2022-08-16T09:54:45.341Z,3.72
2022-08-16T09:57:53.037Z,3.70
2022-08-16T10:00:55.132Z,4.13
2022-08-16T10:04:02.529Z,3.90
2022-08-16T10:07:15.655Z,3.92
2022-08-16T10:10:30.426Z,3.42
2022-08-16T10:13:35.997Z,3.78
2022-08-16T10:16:39.043Z,3.75
2022-08-16T10:19:40.852Z,3.83
2022-08-16T10:22:44.988Z,3.42
2022-08-16T10:27:18.631Z,3.88
2022-08-16T10:29:08.966Z,3.05
2022-08-16T10:32:10.665Z,3.17
2022-08-16T10:35:12.813Z,2.92
2022-08-16T10:38:27.478Z,2.92
2022-08-16T10:41:29.750Z,3.15
2022-08-16T10:44:31.939Z,3.03
2022-08-16T10:47:36.189Z,2.83
2022-08-16T10:50:40.573Z,2.65
2022-08-16T10:53:43.687Z,2.85
2022-08-16T10:56:55.595Z,2.70
2022-08-16T10:59:58.937Z,2.55
2022-08-16T11:03:04.684Z,2.60
2022-08-16T11:06:07.396Z,2.80
2022-08-16T11:09:28.624Z,2.33
2022-08-16T11:12:30.871Z,2.35
2022-08-16T11:15:35.669Z,2.88
2022-08-16T11:19:04.530Z,2.25
2022-08-16T11:22:23.130Z,2.15
2022-08-16T11:32:10.717Z,2.90
2022-08-16T11:35:43.361Z,3.08
2022-08-16T11:38:51.655Z,3.13
2022-08-16T11:41:57.894Z,4.18
2022-08-16T11:44:59.856Z,3.10
2022-08-16T11:48:03.856Z,3.80
2022-08-16T11:51:06.268Z,3.80
2022-08-16T11:54:09.018Z,3.45
2022-08-16T11:57:22.750Z,3.00
2022-08-16T12:00:34.112Z,2.90
2022-08-16T12:03:46.767Z,2.75
2022-08-16T12:06:49.986Z,3.40
2022-08-16T12:09:55.676Z,3.10
2022-08-16T12:12:58.081Z,2.90
2022-08-16T12:16:08.144Z,2.88
2022-08-16T12:19:13.854Z,3.10
2022-08-16T12:22:19.604Z,2.85
2022-08-16T12:25:24.733Z,2.80
2022-08-16T12:28:44.740Z,2.58
2022-08-16T12:32:01.241Z,3.15
2022-08-16T12:35:16.515Z,2.97
2022-08-16T12:38:40.826Z,2.60
2022-08-16T12:41:45.005Z,2.60
2022-08-16T12:44:48.171Z,2.63
2022-08-16T12:48:32.973Z,2.35
2022-08-16T12:51:58.468Z,2.75
2022-08-16T12:55:02.777Z,2.15
2022-08-16T12:58:06.016Z,1.95
2022-08-16T13:01:15.459Z,2.55
2022-08-16T13:04:20.234Z,2.80
2022-08-16T13:07:27.356Z,2.70
2022-08-16T13:10:37.843Z,2.78
2022-08-16T13:13:40.876Z,2.63
2022-08-16T13:16:43.258Z,2.83
2022-08-16T13:23:11.731Z,2.45
2022-08-16T13:26:18.183Z,2.10
2022-08-16T13:29:19.920Z,2.35
2022-08-16T13:32:40.056Z,2.50
2022-08-16T13:35:45.820Z,2.05
2022-08-16T13:38:59.869Z,2.90
2022-08-16T13:42:03.024Z,2.58
2022-08-16T13:45:07.385Z,1.95
2022-08-16T13:48:10.677Z,2.33
2022-08-16T13:51:24.345Z,2.75
2022-08-16T13:54:28.586Z,2.55
2022-08-16T13:57:53.240Z,2.80
2022-08-16T14:00:55.195Z,2.58
2022-08-16T14:03:59.259Z,2.40
2022-08-16T14:07:03.963Z,2.65
2022-08-16T14:10:08.915Z,2.70
2022-08-16T14:13:19.846Z,2.35
2022-08-16T14:16:23.725Z,2.15
2022-08-16T14:19:27.981Z,2.60
2022-08-16T14:22:39.966Z,2.08
2022-08-16T14:25:53.774Z,2.42
2022-08-16T14:28:57.883Z,2.75
2022-08-16T14:32:07.607Z,2.67
2022-08-16T14:35:15.459Z,2.70
2022-08-16T14:38:19.140Z,3.00
2022-08-16T14:41:26.089Z,2.90
2022-08-16T14:44:28.180Z,2.67
2022-08-16T14:47:34.050Z,2.95
2022-08-16T14:50:37.104Z,2.95
2022-08-16T14:53:39.170Z,2.85
2022-08-16T14:56:54.869Z,2.40
2022-08-16T15:00:00.792Z,2.50
2022-08-16T15:03:09.650Z,2.40
2022-08-16T15:06:13.179Z,2.67
2022-08-16T15:09:16.264Z,2.70
2022-08-16T15:12:26.779Z,2.60
2022-08-16T15:15:35.302Z,2.45
2022-08-16T15:18:37.079Z,2.30
2022-08-16T15:21:41.120Z,2.63
2022-08-16T15:24:43.588Z,2.50
2022-08-16T15:27:54.813Z,2.70
2022-08-16T15:31:00.890Z,2.53
2022-08-16T15:34:05.275Z,2.30
2022-08-16T15:37:06.976Z,2.33
2022-08-16T15:40:32.159Z,2.72
2022-08-16T15:43:39.738Z,2.92
2022-08-16T15:46:56.697Z,2.38
2022-08-16T15:50:01.084Z,2.60
2022-08-16T15:53:07.944Z,2.30
2022-08-16T15:56:14.238Z,2.65
2022-08-16T15:59:16.079Z,2.50
2022-08-16T16:02:29.172Z,2.60
2022-08-16T16:05:33.296Z,2.28
2022-08-16T16:08:35.657Z,2.25
2022-08-16T16:11:41.099Z,2.85
2022-08-16T16:14:43.109Z,2.30
2022-08-16T16:17:50.881Z,2.55
2022-08-16T16:20:56.220Z,2.53
2022-08-16T16:24:03.089Z,2.65
2022-08-16T16:27:19.783Z,2.63
2022-08-16T16:30:37.481Z,2.30
2022-08-16T16:33:50.386Z,1.85
2022-08-16T16:36:52.308Z,1.98
2022-08-16T16:39:56.849Z,2.20
2022-08-16T16:43:01.727Z,2.33
2022-08-16T16:46:39.265Z,2.55
2022-08-16T16:49:27.654Z,2.20
2022-08-16T16:52:43.267Z,2.03
2022-08-16T16:55:51.903Z,2.45
2022-08-16T16:58:57.467Z,2.17
2022-08-16T17:02:38.881Z,2.58
2022-08-16T17:05:26.463Z,2.28
2022-08-16T17:08:31.073Z,2.13
2022-08-16T17:11:37.598Z,2.40
2022-08-16T17:14:42.662Z,2.28
2022-08-16T17:18:00.188Z,1.73
2022-08-16T17:21:05.797Z,2.30
2022-08-16T17:24:17.381Z,2.40
2022-08-16T17:27:32.988Z,1.80
2022-08-16T17:30:45.246Z,2.30
2022-08-16T17:33:54.435Z,2.28
2022-08-16T17:36:57.184Z,2.00
2022-08-16T17:40:06.002Z,1.92
2022-08-16T17:43:24.817Z,2.25
2022-08-16T17:46:50.324Z,1.83
2022-08-16T17:49:48.659Z,2.00
2022-08-16T17:52:51.903Z,2.20
2022-08-16T17:55:54.530Z,1.70
2022-08-16T17:58:56.367Z,2.03
2022-08-16T18:01:58.682Z,1.70
2022-08-16T18:05:00.551Z,2.95
2022-08-16T18:08:02.314Z,2.10
2022-08-16T18:11:05.681Z,2.40
2022-08-16T18:14:10.864Z,2.10
2022-08-16T18:17:12.632Z,2.10
2022-08-16T18:20:46.518Z,2.13
2022-08-16T18:23:48.253Z,2.78
2022-08-16T18:26:50.308Z,2.65
2022-08-16T18:29:52.224Z,2.53
2022-08-16T18:32:54.168Z,2.55
2022-08-16T18:35:57.818Z,2.22
2022-08-16T18:38:59.935Z,2.35
2022-08-16T18:42:10.169Z,2.13
2022-08-16T18:45:15.229Z,2.00
2022-08-16T18:48:17.899Z,2.10
2022-08-16T18:51:24.804Z,2.17
2022-08-16T18:54:28.397Z,2.85
2022-08-16T18:57:30.183Z,1.98
2022-08-16T19:00:55.960Z,2.13
2022-08-16T19:03:58.061Z,2.17
2022-08-16T19:06:59.788Z,2.20
2022-08-16T19:10:01.982Z,2.35
2022-08-16T19:13:09.466Z,2.35
2022-08-16T19:16:12.500Z,2.75
2022-08-16T19:19:15.854Z,2.50
2022-08-16T19:22:51.928Z,2.20
2022-08-16T19:25:55.043Z,2.70
2022-08-16T19:29:00.014Z,3.80
2022-08-16T19:32:14.820Z,3.35
2022-08-16T19:35:17.118Z,2.72
2022-08-16T19:38:18.882Z,3.28
2022-08-16T19:41:20.597Z,2.30
2022-08-16T19:44:22.863Z,2.80
2022-08-16T19:47:25.559Z,2.92
2022-08-16T19:50:35.736Z,2.97
2022-08-16T19:53:38.108Z,2.67
2022-08-16T19:56:39.933Z,2.83
2022-08-16T19:59:41.971Z,2.70
2022-08-16T20:02:51.173Z,2.28
2022-08-16T20:05:53.270Z,3.58
2022-08-16T20:08:55.044Z,2.65
2022-08-16T20:11:57.027Z,3.30
2022-08-16T20:14:59.243Z,2.80
2022-08-16T20:18:01.002Z,2.90
2022-08-16T20:21:02.996Z,2.58
2022-08-16T20:24:32.700Z,3.00
2022-08-16T20:27:27.543Z,3.03
2022-08-16T20:30:29.317Z,3.47
2022-08-16T20:33:31.047Z,3.30
2022-08-16T20:36:32.775Z,2.85
2022-08-16T20:39:34.626Z,3.15
2022-08-16T20:42:36.569Z,3.53
2022-08-16T20:45:40.302Z,3.10
2022-08-16T20:48:42.613Z,3.63
2022-08-16T20:51:46.733Z,3.20
2022-08-16T20:54:49.368Z,3.03
2022-08-16T20:57:51.147Z,2.95
2022-08-16T21:00:52.933Z,3.10
2022-08-16T21:03:54.659Z,3.22
2022-08-16T21:06:59.209Z,2.80
2022-08-16T21:10:00.919Z,3.00
2022-08-16T21:13:02.907Z,3.38
2022-08-16T21:16:04.661Z,3.65
2022-08-16T21:19:06.527Z,3.10
2022-08-16T21:22:14.612Z,2.75
2022-08-16T21:25:16.997Z,3.65
2022-08-16T21:28:40.966Z,3.05
2022-08-16T21:31:45.116Z,3.72
2022-08-16T21:34:46.923Z,3.08
2022-08-16T21:38:00.173Z,2.97
2022-08-16T21:41:12.710Z,3.45
2022-08-16T21:44:14.533Z,3.30
2022-08-16T21:47:16.308Z,4.00
2022-08-16T21:50:18.303Z,3.58
2022-08-16T21:53:22.710Z,3.38
2022-08-16T21:56:24.508Z,4.10
2022-08-16T21:59:26.236Z,3.78
2022-08-16T22:02:35.624Z,4.30
2022-08-16T22:05:42.545Z,4.18
2022-08-16T22:08:48.087Z,4.07
2022-08-16T22:11:52.409Z,4.00
2022-08-16T22:14:54.546Z,3.78
2022-08-16T22:17:58.957Z,4.82
2022-08-16T22:21:00.741Z,4.60
2022-08-16T22:24:04.001Z,3.92
2022-08-16T22:27:06.334Z,4.20
2022-08-16T22:30:08.512Z,4.10
2022-08-16T22:33:13.458Z,4.45
2022-08-16T22:36:15.254Z,4.22
2022-08-16T22:39:16.997Z,4.63
2022-08-16T22:42:18.816Z,4.68
2022-08-16T22:45:20.611Z,4.72
2022-08-16T22:48:22.498Z,5.00
2022-08-16T22:51:25.657Z,4.13
2022-08-16T22:54:43.819Z,4.60
2022-08-16T22:57:49.667Z,4.57
2022-08-16T23:00:51.399Z,4.22
2022-08-16T23:03:55.539Z,4.38
2022-08-16T23:06:57.395Z,4.63
2022-08-16T23:10:01.462Z,4.68
2022-08-16T23:13:05.664Z,5.10
2022-08-16T23:16:11.460Z,4.72
2022-08-16T23:19:15.097Z,5.00
2022-08-16T23:22:16.816Z,5.60
2022-08-16T23:25:22.017Z,4.95
2022-08-16T23:28:29.320Z,4.78
2022-08-16T23:31:32.485Z,5.15
2022-08-16T23:34:34.808Z,5.18
2022-08-16T23:37:36.973Z,5.40
2022-08-16T23:40:39.489Z,5.55
2022-08-16T23:43:43.366Z,5.55
2022-08-16T23:46:47.668Z,5.18
2022-08-16T23:50:01.029Z,5.70
2022-08-16T23:53:09.573Z,5.65
2022-08-16T23:56:15.783Z,6.15
2022-08-16T23:59:17.625Z,5.50
